KFOT

Rohnerville Airport

Fortuna, California, USA
METAR KFOT 201515Z AUTO 13007KT 10SM CLR M02/M03 A3027 RMK AO1
Observed Flight Rules
Feb-20 @ 15:15 UTC (22 hours ago) Visual Flight Rules
Wind Visibility Clouds
130° at 7 knots 10 miles
  • Clear skies
Temperatures Readings
Current -2°C / 28°F
Dewpoint -3°C / 27°F
Humidity 93%
Altimeter 30.27" Hg
Pressure 1025 hPa
Elevation 120
METAR KFOT 201515Z AUTO 13007KT 10SM CLR M02/M03 A3027 RMK AO1
Observed Flight Rules
Feb-20 @ 15:15 UTC
(22 hours ago)
VFR
Wind Visibility
130° at 7 knots 10 miles
Clouds
  • Clear skies
Temperature Dewpoint
-2°C / 28°F -3°C / 27°F
Humidity Altimeter Pressure
93% 30.27" Hg 1025 hPa